createdAt,value
2017-03-07T00:00:23.229Z,21.78
2017-03-07T00:01:23.292Z,21.11
2017-03-07T00:02:22.843Z,21.02
2017-03-07T00:03:22.798Z,20.64
2017-03-07T00:04:23.376Z,19.98
2017-03-07T00:05:22.731Z,19.98
2017-03-07T00:06:23.331Z,19.89
2017-03-07T00:07:23.052Z,19.22
2017-03-07T00:08:23.259Z,19.7
2017-03-07T00:09:23.363Z,19.51
2017-03-07T00:10:22.695Z,20.36
2017-03-07T00:11:23.073Z,20.45
2017-03-07T00:12:23.307Z,19.7
2017-03-07T00:13:23.144Z,19.6
2017-03-07T00:14:23.063Z,18.84
2017-03-07T00:15:23.243Z,18.94
2017-03-07T00:16:23.079Z,18.46
2017-03-07T00:17:22.667Z,18.08
2017-03-07T00:18:23.055Z,17.71
2017-03-07T00:19:22.831Z,17.23
2017-03-07T00:20:23.177Z,17.33
2017-03-07T00:21:23.117Z,17.8
2017-03-07T00:22:23.187Z,17.61
2017-03-07T00:23:22.914Z,17.14
2017-03-07T00:24:23.002Z,17.04
2017-03-07T00:25:22.494Z,16.85
2017-03-07T00:26:22.550Z,17.8
2017-03-07T00:27:22.555Z,18.75
2017-03-07T00:28:22.632Z,18.56
2017-03-07T00:29:22.542Z,18.37
2017-03-07T00:30:22.373Z,18.94
2017-03-07T00:31:22.403Z,18.65
2017-03-07T00:32:22.932Z,18.94
2017-03-07T00:33:22.904Z,18.75
2017-03-07T00:34:23.028Z,18.27
2017-03-07T00:35:22.948Z,17.99
2017-03-07T00:36:23.015Z,17.04
2017-03-07T00:37:22.606Z,16.85
2017-03-07T00:38:22.841Z,16.57
2017-03-07T00:39:22.177Z,16.47
2017-03-07T00:40:22.241Z,16.76
2017-03-07T00:41:22.430Z,17.14
2017-03-07T00:42:22.851Z,17.61
2017-03-07T00:43:22.253Z,16.57
2017-03-07T00:44:22.222Z,16.57
2017-03-07T00:45:22.589Z,16.38
2017-03-07T00:46:22.186Z,15.34
2017-03-07T00:47:22.944Z,15.05
2017-03-07T00:48:22.315Z,15.05
2017-03-07T00:49:22.331Z,15.05
2017-03-07T00:50:22.323Z,16.38
2017-03-07T00:51:21.902Z,16.66
2017-03-07T00:52:22.284Z,16.57
2017-03-07T00:53:22.273Z,16.38
2017-03-07T00:54:21.859Z,16.66
2017-03-07T00:55:22.242Z,16.38
2017-03-07T00:56:22.229Z,16.38
2017-03-07T00:57:22.215Z,17.04
2017-03-07T00:58:22.198Z,19.51
2017-03-07T00:59:22.181Z,20.07
2017-03-07T01:00:22.171Z,19.89
2017-03-07T01:01:22.154Z,19.79
2017-03-07T01:02:22.155Z,18.46
2017-03-07T01:03:22.141Z,17.61
2017-03-07T01:04:22.111Z,17.8
2017-03-07T01:05:22.099Z,17.8
2017-03-07T01:06:22.082Z,18.27
2017-03-07T01:07:22.068Z,18.08
2017-03-07T01:08:22.056Z,18.37
2017-03-07T01:09:22.036Z,17.9
2017-03-07T01:10:22.035Z,17.04
2017-03-07T01:11:22.010Z,16.19
2017-03-07T01:12:22.004Z,15.72
2017-03-07T01:13:22.000Z,15.44
2017-03-07T01:14:21.967Z,15.05
2017-03-07T01:15:21.967Z,14.58
2017-03-07T01:16:21.958Z,14.48
2017-03-07T01:17:21.932Z,15.05
2017-03-07T01:18:21.909Z,16.56
2017-03-07T01:19:21.896Z,16.38
2017-03-07T01:20:21.879Z,15.63
2017-03-07T01:21:21.863Z,15.44
2017-03-07T01:22:21.885Z,15.91
2017-03-07T01:23:21.832Z,15.63
2017-03-07T01:24:21.827Z,15.44
2017-03-07T01:25:21.810Z,14.96
2017-03-07T01:26:21.395Z,15.63
2017-03-07T01:27:21.776Z,15.25
2017-03-07T01:28:21.781Z,15.34
2017-03-07T01:29:21.746Z,15.15
2017-03-07T01:30:21.733Z,14.58
2017-03-07T01:31:21.730Z,15.25
2017-03-07T01:32:21.726Z,16.18
2017-03-07T01:33:21.693Z,16.57
2017-03-07T01:34:21.703Z,16.37
2017-03-07T01:35:21.658Z,16.37
2017-03-07T01:36:21.256Z,15.8
2017-03-07T01:37:21.628Z,16.18
2017-03-07T01:38:21.619Z,16.47
2017-03-07T01:39:21.599Z,16.56
2017-03-07T01:40:21.590Z,16.18
2017-03-07T01:41:21.568Z,15.42
2017-03-07T01:42:21.552Z,14.86
2017-03-07T01:43:21.551Z,14.76
2017-03-07T01:44:21.529Z,14.2
2017-03-07T01:45:21.111Z,14.58
2017-03-07T01:46:21.493Z,14.67
2017-03-07T01:47:21.481Z,13.63
2017-03-07T01:48:21.461Z,14.01
2017-03-07T01:49:21.450Z,14.67
2017-03-07T01:50:21.434Z,15.52
2017-03-07T01:51:21.418Z,16.37
2017-03-07T01:52:21.401Z,17.13
2017-03-07T01:53:21.397Z,16.85
2017-03-07T01:54:21.375Z,16.47
2017-03-07T01:55:21.366Z,15.71
2017-03-07T01:56:21.349Z,15.61
2017-03-07T01:57:21.343Z,14.67
2017-03-07T01:58:21.316Z,13.72
2017-03-07T01:59:21.299Z,13.82
2017-03-07T02:00:21.285Z,13.63
2017-03-07T02:01:21.268Z,13.91
2017-03-07T02:02:21.256Z,14.01
2017-03-07T02:03:20.841Z,14.29
2017-03-07T02:04:21.233Z,13.44
2017-03-07T02:05:21.206Z,13.34
2017-03-07T02:06:21.194Z,13.15
2017-03-07T02:07:21.176Z,13.15
2017-03-07T02:08:21.160Z,12.49
2017-03-07T02:09:21.153Z,12.12
2017-03-07T02:10:21.156Z,11.64
2017-03-07T02:11:21.118Z,11.45
2017-03-07T02:12:21.101Z,10.69
2017-03-07T02:13:21.083Z,10.31
2017-03-07T02:14:21.076Z,10.13
2017-03-07T02:15:21.054Z,9.75
2017-03-07T02:16:21.036Z,9.65
2017-03-07T02:17:21.024Z,9.56
2017-03-07T02:18:21.007Z,9.18
2017-03-07T02:19:20.999Z,9.18
2017-03-07T02:20:20.978Z,9.08
2017-03-07T02:21:20.975Z,9.37
2017-03-07T02:22:20.951Z,9.56
2017-03-07T02:23:20.930Z,9.65
2017-03-07T02:24:20.928Z,9.46
2017-03-07T02:25:20.903Z,9.27
2017-03-07T02:26:20.886Z,9.37
2017-03-07T02:27:20.867Z,9.08
2017-03-07T02:28:20.859Z,8.8
2017-03-07T02:29:20.838Z,8.99
2017-03-07T02:30:20.825Z,8.61
2017-03-07T02:31:20.411Z,8.42
2017-03-07T02:32:20.796Z,7.95
2017-03-07T02:33:20.777Z,7.67
2017-03-07T02:34:20.767Z,7.57
2017-03-07T02:35:20.747Z,6.91
2017-03-07T02:36:20.735Z,6.72
2017-03-07T02:37:20.718Z,6.62
2017-03-07T02:38:20.715Z,6.24
2017-03-07T02:39:20.689Z,6.24
2017-03-07T02:40:20.686Z,6.43
2017-03-07T02:41:20.658Z,6.53
2017-03-07T02:42:20.643Z,6.34
2017-03-07T02:43:20.628Z,6.34
2017-03-07T02:44:20.613Z,6.05
2017-03-07T02:45:20.601Z,6.34
2017-03-07T02:46:20.186Z,6.62
2017-03-07T02:47:20.579Z,6.24
2017-03-07T02:48:20.554Z,6.34
2017-03-07T02:49:20.537Z,6.34
2017-03-07T02:50:20.531Z,6.15
2017-03-07T02:51:20.506Z,5.87
2017-03-07T02:52:20.096Z,5.68
2017-03-07T02:53:20.478Z,5.77
2017-03-07T02:54:20.465Z,6.53
2017-03-07T02:55:20.448Z,6.15
2017-03-07T02:56:20.436Z,6.24
2017-03-07T02:57:20.021Z,6.34
2017-03-07T02:58:20.405Z,6.34
2017-03-07T02:59:20.387Z,6.05
2017-03-07T03:00:20.389Z,6.91
2017-03-07T03:01:20.363Z,7.48
2017-03-07T03:02:20.345Z,8.14
2017-03-07T03:03:19.944Z,8.14
2017-03-07T03:04:20.314Z,9.27
2017-03-07T03:05:20.301Z,9.75
2017-03-07T03:06:20.285Z,10.5
2017-03-07T03:07:20.271Z,10.97
2017-03-07T03:08:20.253Z,11.26
2017-03-07T03:09:20.246Z,10.88
2017-03-07T03:10:20.237Z,11.16
2017-03-07T03:11:20.207Z,12.49
2017-03-07T03:12:20.196Z,12.59
2017-03-07T03:13:20.180Z,12.59
2017-03-07T03:14:20.167Z,12.21
2017-03-07T03:15:20.158Z,12.59
2017-03-07T03:16:20.136Z,12.3
2017-03-07T03:17:20.124Z,12.49
2017-03-07T03:18:19.707Z,12.49
2017-03-07T03:19:20.102Z,12.49
2017-03-07T03:20:20.076Z,12.59
2017-03-07T03:21:20.070Z,12.4
2017-03-07T03:22:20.059Z,12.49
2017-03-07T03:23:19.634Z,12.96
2017-03-07T03:24:20.016Z,13.25
2017-03-07T03:25:19.997Z,14.48
2017-03-07T03:26:19.993Z,16.56
2017-03-07T03:27:19.968Z,16.37
2017-03-07T03:28:19.951Z,15.42
2017-03-07T03:29:19.965Z,14.48
2017-03-07T03:30:19.923Z,13.91
2017-03-07T03:31:19.523Z,13.81
2017-03-07T03:32:19.495Z,13.91
2017-03-07T03:33:19.878Z,13.43
2017-03-07T03:34:19.861Z,12.58
2017-03-07T03:35:19.853Z,11.64
2017-03-07T03:36:19.864Z,10.97
2017-03-07T03:37:19.818Z,9.93
2017-03-07T03:38:19.805Z,9.65
2017-03-07T03:39:19.785Z,8.99
2017-03-07T03:40:19.768Z,8.42
2017-03-07T03:41:19.755Z,8.04
2017-03-07T03:42:19.346Z,7.48
2017-03-07T03:43:19.723Z,7
2017-03-07T03:44:19.726Z,6.72
2017-03-07T03:45:19.704Z,6.43
2017-03-07T03:46:19.676Z,5.77
2017-03-07T03:47:19.671Z,5.58
2017-03-07T03:48:19.647Z,5.3
2017-03-07T03:49:19.637Z,4.92
2017-03-07T03:50:19.611Z,5.3
2017-03-07T03:51:19.597Z,5.01
2017-03-07T03:52:19.587Z,4.16
2017-03-07T03:53:19.580Z,3.69
2017-03-07T03:54:19.550Z,4.54
2017-03-07T03:55:19.541Z,4.25
2017-03-07T03:56:19.524Z,4.16
2017-03-07T03:57:19.519Z,4.06
2017-03-07T03:58:19.489Z,3.78
2017-03-07T03:59:19.483Z,4.06
2017-03-07T04:00:19.460Z,4.25
2017-03-07T04:01:19.454Z,4.25
2017-03-07T04:02:19.428Z,4.82
2017-03-07T04:03:19.411Z,5.58
2017-03-07T04:04:19.395Z,5.39
2017-03-07T04:05:19.383Z,5.3
2017-03-07T04:06:19.366Z,5.11
2017-03-07T04:07:19.349Z,5.3
2017-03-07T04:08:19.364Z,5.3
2017-03-07T04:09:19.318Z,4.82
2017-03-07T04:10:19.313Z,4.82
2017-03-07T04:11:19.287Z,5.2
2017-03-07T04:12:19.282Z,4.92
2017-03-07T04:13:19.257Z,5.01
2017-03-07T04:14:19.243Z,4.54
2017-03-07T04:15:19.227Z,4.25
2017-03-07T04:16:19.208Z,3.31
2017-03-07T04:17:19.192Z,3.88
2017-03-07T04:18:19.191Z,4.25
2017-03-07T04:19:19.157Z,4.16
2017-03-07T04:20:19.146Z,3.69
2017-03-07T04:21:19.149Z,4.25
2017-03-07T04:22:19.137Z,4.63
2017-03-07T04:23:19.098Z,4.82
2017-03-07T04:24:19.082Z,5.11
2017-03-07T04:25:19.068Z,6.05
2017-03-07T04:26:19.050Z,6.34
2017-03-07T04:27:19.045Z,6.24
2017-03-07T04:28:19.039Z,5.3
2017-03-07T04:29:19.006Z,4.82
2017-03-07T04:30:18.992Z,4.54
2017-03-07T04:31:18.985Z,4.44
2017-03-07T04:32:18.966Z,4.06
2017-03-07T04:33:18.942Z,3.88
2017-03-07T04:34:18.925Z,4.06
2017-03-07T04:35:18.917Z,4.25
2017-03-07T04:36:18.895Z,4.35
2017-03-07T04:37:18.879Z,3.69
2017-03-07T04:38:18.866Z,4.54
2017-03-07T04:39:18.849Z,4.92
2017-03-07T04:40:18.834Z,4.92
2017-03-07T04:41:18.422Z,5.01
2017-03-07T04:42:18.801Z,5.01
2017-03-07T04:43:18.786Z,5.3
2017-03-07T04:44:18.374Z,5.3
2017-03-07T04:45:18.753Z,5.01
2017-03-07T04:46:18.740Z,4.92
2017-03-07T04:47:18.729Z,4.92
2017-03-07T04:48:18.704Z,5.11
2017-03-07T04:49:18.693Z,5.49
2017-03-07T04:50:18.679Z,5.87
2017-03-07T04:51:18.658Z,6.24
2017-03-07T04:52:18.644Z,6.43
2017-03-07T04:53:18.628Z,6.62
2017-03-07T04:54:18.622Z,6.71
2017-03-07T04:55:18.597Z,7.57
2017-03-07T04:56:18.588Z,7.85
2017-03-07T04:57:18.569Z,8.04
2017-03-07T04:58:18.562Z,7.66
2017-03-07T04:59:18.539Z,7.66
2017-03-07T05:00:18.520Z,7.38
2017-03-07T05:01:18.521Z,7
2017-03-07T05:02:18.486Z,6.81
2017-03-07T05:03:18.472Z,6.34
2017-03-07T05:04:18.457Z,6.71
2017-03-07T05:05:18.438Z,6.81
2017-03-07T05:06:18.422Z,6.62
2017-03-07T05:07:18.410Z,6.52
2017-03-07T05:08:18.392Z,6.9
2017-03-07T05:09:18.381Z,6.71
2017-03-07T05:10:18.360Z,6.34
2017-03-07T05:11:18.351Z,5.77
2017-03-07T05:12:18.328Z,6.05
2017-03-07T05:13:18.314Z,6.24
2017-03-07T05:14:18.298Z,6.34
2017-03-07T05:15:18.282Z,6.81
2017-03-07T05:16:18.262Z,6.71
2017-03-07T05:17:18.249Z,6.62
2017-03-07T05:18:18.240Z,5.68
2017-03-07T05:19:18.217Z,5.39
2017-03-07T05:20:18.205Z,6.24
2017-03-07T05:21:17.798Z,6.24
2017-03-07T05:22:18.172Z,6.24
2017-03-07T05:23:18.154Z,6.24
2017-03-07T05:24:18.137Z,5.96
2017-03-07T05:25:18.122Z,6.62
2017-03-07T05:26:18.109Z,6.43
2017-03-07T05:27:18.091Z,7.09
2017-03-07T05:28:18.081Z,8.04
2017-03-07T05:29:18.067Z,7.76
2017-03-07T05:30:18.041Z,6.81
2017-03-07T05:31:18.025Z,6.34
2017-03-07T05:32:18.012Z,6.15
2017-03-07T05:33:18.007Z,6.24
2017-03-07T05:34:17.579Z,6.05
2017-03-07T05:35:17.963Z,6.62
2017-03-07T05:36:17.943Z,7
2017-03-07T05:37:17.930Z,7.09
2017-03-07T05:38:17.922Z,6.81
2017-03-07T05:39:17.896Z,6.24
2017-03-07T05:40:17.881Z,5.77
2017-03-07T05:41:17.468Z,5.87
2017-03-07T05:42:17.855Z,5.58
2017-03-07T05:43:17.833Z,6.15
2017-03-07T05:44:17.816Z,6.15
2017-03-07T05:45:17.801Z,6.34
2017-03-07T05:46:17.785Z,5.77
2017-03-07T05:47:17.780Z,5.77
2017-03-07T05:48:17.754Z,5.77
2017-03-07T05:49:17.737Z,5.77
2017-03-07T05:50:17.722Z,5.68
2017-03-07T05:51:17.718Z,5.77
2017-03-07T05:52:17.693Z,5.96
2017-03-07T05:53:17.676Z,5.77
2017-03-07T05:54:17.661Z,5.87
2017-03-07T05:55:17.243Z,5.87
2017-03-07T05:56:17.623Z,5.49
2017-03-07T05:57:17.608Z,5.77
2017-03-07T05:58:17.594Z,5.49
2017-03-07T05:59:17.579Z,5.3
2017-03-07T06:00:17.574Z,5.3
2017-03-07T06:01:17.546Z,5.3
2017-03-07T06:02:17.529Z,5.2
2017-03-07T06:03:17.513Z,5.39
2017-03-07T06:04:17.519Z,5.39
2017-03-07T06:05:17.481Z,5.77
2017-03-07T06:06:17.492Z,5.87
2017-03-07T06:07:17.451Z,5.77
2017-03-07T06:08:17.448Z,6.34
2017-03-07T06:09:17.426Z,6.43
2017-03-07T06:10:17.404Z,6.52
2017-03-07T06:11:17.402Z,7.09
2017-03-07T06:12:17.390Z,6.9
2017-03-07T06:13:17.370Z,6.9
2017-03-07T06:14:17.338Z,7.47
2017-03-07T06:15:17.338Z,7.47
2017-03-07T06:16:17.308Z,7.28
2017-03-07T06:17:17.293Z,7.19
2017-03-07T06:18:16.886Z,8.14
2017-03-07T06:19:16.867Z,8.51
2017-03-07T06:20:17.248Z,8.23
2017-03-07T06:21:17.234Z,7.85
2017-03-07T06:22:17.222Z,7
2017-03-07T06:23:17.198Z,7.09
2017-03-07T06:24:17.184Z,7.47
2017-03-07T06:25:17.168Z,6.9
2017-03-07T06:26:17.151Z,7.38
2017-03-07T06:27:17.142Z,8.04
2017-03-07T06:28:17.135Z,7.95
2017-03-07T06:29:17.105Z,7.76
2017-03-07T06:30:17.095Z,8.14
2017-03-07T06:31:17.072Z,7.95
2017-03-07T06:32:17.073Z,8.04
2017-03-07T06:33:17.046Z,8.14
2017-03-07T06:34:16.625Z,8.04
2017-03-07T06:35:17.014Z,8.14
2017-03-07T06:36:16.996Z,8.51
2017-03-07T06:37:16.580Z,8.51
2017-03-07T06:38:16.962Z,8.8
2017-03-07T06:39:16.946Z,8.42
2017-03-07T06:40:16.932Z,8.98
2017-03-07T06:41:16.916Z,9.36
2017-03-07T06:42:16.905Z,9.17
2017-03-07T06:43:16.884Z,9.36
2017-03-07T06:44:16.868Z,8.89
2017-03-07T06:45:16.853Z,8.42
2017-03-07T06:46:16.836Z,8.51
2017-03-07T06:47:16.822Z,7.95
2017-03-07T06:48:16.409Z,7.66
2017-03-07T06:49:16.789Z,7.38
2017-03-07T06:50:16.772Z,7.19
2017-03-07T06:51:16.759Z,6.9
2017-03-07T06:52:16.745Z,7
2017-03-07T06:53:16.728Z,7.09
2017-03-07T06:54:16.712Z,7.38
2017-03-07T06:55:16.697Z,7.28
2017-03-07T06:56:16.679Z,7
2017-03-07T06:57:16.675Z,7.09
2017-03-07T06:58:16.254Z,6.34
2017-03-07T06:59:16.643Z,6.52
2017-03-07T07:00:16.632Z,6.24
2017-03-07T07:01:16.604Z,6.05
2017-03-07T07:02:16.586Z,5.39
2017-03-07T07:03:16.571Z,5.2
2017-03-07T07:04:16.553Z,4.92
2017-03-07T07:05:16.543Z,4.82
2017-03-07T07:06:16.522Z,4.35
2017-03-07T07:07:16.504Z,4.06
2017-03-07T07:08:16.499Z,3.88
2017-03-07T07:09:16.474Z,4.25
2017-03-07T07:10:16.460Z,4.16
2017-03-07T07:11:16.482Z,4.25
2017-03-07T07:12:16.438Z,4.06
2017-03-07T07:13:16.425Z,3.41
2017-03-07T07:14:16.395Z,3.12
2017-03-07T07:15:16.382Z,3.59
2017-03-07T07:16:16.381Z,3.69
2017-03-07T07:17:16.348Z,3.41
2017-03-07T07:18:16.344Z,3.5
2017-03-07T07:19:16.318Z,3.41
2017-03-07T07:20:16.305Z,3.03
2017-03-07T07:21:16.299Z,2.84
2017-03-07T07:22:16.278Z,2.93
2017-03-07T07:23:16.267Z,3.41
2017-03-07T07:24:16.246Z,2.93
2017-03-07T07:25:16.237Z,3.12
2017-03-07T07:26:16.213Z,3.22
2017-03-07T07:27:16.194Z,2.93
2017-03-07T07:28:16.182Z,4.06
2017-03-07T07:29:16.173Z,6.34
2017-03-07T07:30:16.144Z,6.81
2017-03-07T07:31:16.132Z,6.52
2017-03-07T07:32:16.124Z,6.81
2017-03-07T07:33:16.120Z,7.28
2017-03-07T07:34:16.081Z,7
2017-03-07T07:35:16.081Z,9.46
2017-03-07T07:36:16.055Z,10.6
2017-03-07T07:37:16.034Z,12.59
2017-03-07T07:38:16.024Z,12.59
2017-03-07T07:39:16.010Z,13.15
2017-03-07T07:40:16.004Z,14.29
2017-03-07T07:41:15.974Z,14.95
2017-03-07T07:42:15.971Z,14.2
2017-03-07T07:43:15.947Z,13.34
2017-03-07T07:44:15.931Z,14.58
2017-03-07T07:45:15.914Z,15.8
2017-03-07T07:46:15.898Z,15.52
2017-03-07T07:47:15.881Z,14.2
2017-03-07T07:48:15.867Z,13.44
2017-03-07T07:49:15.852Z,14.29
2017-03-07T07:50:15.835Z,15.52
2017-03-07T07:51:15.820Z,18.07
2017-03-07T07:52:15.806Z,20.54
2017-03-07T07:53:15.801Z,19.87
2017-03-07T07:54:15.773Z,25.93
2017-03-07T07:55:15.760Z,24.42
2017-03-07T07:56:15.744Z,24.23
2017-03-07T07:57:15.729Z,28.86
2017-03-07T07:58:15.724Z,32.75
2017-03-07T07:59:15.697Z,30.57
2017-03-07T08:00:15.683Z,29.34
2017-03-07T08:01:15.667Z,30.19
2017-03-07T08:02:15.663Z,31.9
2017-03-07T08:03:15.636Z,31.52
2017-03-07T08:04:15.624Z,29.34
2017-03-07T08:05:15.611Z,29.81
2017-03-07T08:06:15.202Z,29.72
2017-03-07T08:07:15.580Z,28.96
2017-03-07T08:08:15.562Z,28.39
2017-03-07T08:09:15.552Z,27.92
2017-03-07T08:10:15.546Z,27.73
2017-03-07T08:11:15.514Z,30.19
2017-03-07T08:12:15.102Z,30.76
2017-03-07T08:13:15.482Z,29.81
2017-03-07T08:14:15.472Z,30
2017-03-07T08:15:15.454Z,30.38
2017-03-07T08:16:15.436Z,30.19
2017-03-07T08:17:15.035Z,30.19
2017-03-07T08:18:15.413Z,31.04
2017-03-07T08:19:15.398Z,30.19
2017-03-07T08:20:15.381Z,29.53
2017-03-07T08:21:15.381Z,29.24
2017-03-07T08:22:15.359Z,29.15
2017-03-07T08:23:15.341Z,28.96
2017-03-07T08:24:14.921Z,26.69
2017-03-07T08:25:15.299Z,25.46
2017-03-07T08:28:15.257Z,25.74
2017-03-07T08:29:15.238Z,25.84
2017-03-07T08:30:15.226Z,26.88
2017-03-07T08:31:14.808Z,27.73
2017-03-07T08:32:15.195Z,27.83
2017-03-07T08:33:15.176Z,29.24
2017-03-07T08:34:15.166Z,29.24
2017-03-07T08:35:15.147Z,29.24
2017-03-07T08:36:15.128Z,28.96
2017-03-07T08:37:15.117Z,31.99
2017-03-07T08:38:15.157Z,35.87
2017-03-07T08:39:15.085Z,37.29
2017-03-07T08:40:14.672Z,35.77
2017-03-07T08:41:15.052Z,34.83
2017-03-07T08:42:15.043Z,33.5
2017-03-07T08:43:15.029Z,32.75
2017-03-07T08:44:15.025Z,36.25
2017-03-07T08:45:15.000Z,39.75
2017-03-07T08:46:14.978Z,38.81
2017-03-07T08:47:14.961Z,39
2017-03-07T08:48:14.952Z,43.73
2017-03-07T08:49:14.943Z,44.39
2017-03-07T08:50:14.915Z,44.1
2017-03-07T08:51:14.901Z,42.69
2017-03-07T08:52:14.885Z,40.13
2017-03-07T08:53:14.880Z,39.47
2017-03-07T08:54:14.854Z,41.08
2017-03-07T08:55:14.839Z,42.69
2017-03-07T08:56:14.839Z,42.88
2017-03-07T08:57:14.812Z,40.6
2017-03-07T08:58:14.795Z,39.65
2017-03-07T08:59:14.780Z,39.09
2017-03-07T09:00:14.369Z,38.33
2017-03-07T09:01:14.751Z,36.63
2017-03-07T09:02:14.733Z,37.1
2017-03-07T09:03:14.730Z,37.1
2017-03-07T09:04:14.705Z,35.68
2017-03-07T09:05:14.297Z,36.44
2017-03-07T09:06:14.673Z,36.06
2017-03-07T09:07:14.656Z,35.58
2017-03-07T09:08:14.640Z,35.11
2017-03-07T09:09:14.624Z,35.39
2017-03-07T09:10:14.613Z,35.11
2017-03-07T09:11:14.597Z,37.01
2017-03-07T09:12:14.578Z,37.57
2017-03-07T09:13:14.565Z,37.38
2017-03-07T09:14:14.560Z,39.65
2017-03-07T09:15:14.554Z,39
2017-03-07T09:16:14.520Z,40.41
2017-03-07T09:17:14.528Z,41.36
2017-03-07T09:18:14.488Z,40.79
2017-03-07T09:19:14.475Z,39.84
2017-03-07T09:20:14.468Z,41.46
2017-03-07T09:21:14.218Z,42.5
2017-03-07T09:22:14.945Z,46.75
2017-03-07T09:23:14.601Z,45.81
2017-03-07T09:24:14.939Z,46.28
2017-03-07T09:25:14.855Z,48.65
2017-03-07T09:26:13.979Z,48.65
2017-03-07T09:27:14.387Z,50.63
2017-03-07T09:28:14.338Z,50.92
2017-03-07T09:29:14.329Z,53.28
2017-03-07T09:30:14.311Z,51.3
2017-03-07T09:31:14.292Z,51.49
2017-03-07T09:32:14.280Z,50.07
2017-03-07T09:33:14.278Z,48.74
2017-03-07T09:34:14.251Z,47.89
2017-03-07T09:35:14.232Z,47.51
2017-03-07T09:36:14.221Z,51.49
2017-03-07T09:37:14.199Z,49.22
2017-03-07T09:38:14.190Z,47.42
2017-03-07T09:39:14.169Z,45.15
2017-03-07T09:40:14.172Z,43.71
2017-03-07T09:41:14.143Z,41.06
2017-03-07T09:42:14.125Z,39.83
2017-03-07T09:43:14.125Z,39.07
2017-03-07T09:44:14.097Z,40.11
2017-03-07T09:45:14.083Z,40.41
2017-03-07T09:46:14.067Z,39.92
2017-03-07T09:47:14.297Z,38.43
2017-03-07T09:48:14.034Z,37.1
2017-03-07T09:49:14.019Z,36.63
2017-03-07T09:50:14.045Z,35.3
2017-03-07T09:51:14.001Z,40.13
2017-03-07T09:52:13.986Z,41.46
2017-03-07T09:53:13.956Z,45.24
2017-03-07T09:54:13.943Z,51.39
2017-03-07T09:55:13.927Z,51.58
2017-03-07T09:56:13.923Z,50.54
2017-03-07T09:57:13.900Z,48.55
2017-03-07T09:58:13.881Z,46
2017-03-07T09:59:13.863Z,43.63
2017-03-07T10:00:13.856Z,40.96
2017-03-07T10:01:13.997Z,40.32
2017-03-07T10:02:13.981Z,39.47
2017-03-07T10:03:13.809Z,38.33
2017-03-07T10:04:13.793Z,36.91
2017-03-07T10:05:13.777Z,35.77
2017-03-07T10:06:13.774Z,38.62
2017-03-07T10:07:13.743Z,42.5
2017-03-07T10:08:13.725Z,44.58
2017-03-07T10:09:13.714Z,41.08
2017-03-07T10:10:13.708Z,41.55
2017-03-07T10:11:13.683Z,42.69
2017-03-07T10:12:13.671Z,42.59
2017-03-07T10:13:13.660Z,44.1
2017-03-07T10:14:13.678Z,42.3
2017-03-07T10:15:13.638Z,39.75
2017-03-07T10:16:13.606Z,41.08
2017-03-07T10:17:13.591Z,41.74
2017-03-07T10:18:13.575Z,40.41
2017-03-07T10:19:13.562Z,40.7
2017-03-07T10:20:13.544Z,39.84
2017-03-07T10:21:13.531Z,44.58
2017-03-07T10:22:13.523Z,56.13
2017-03-07T10:23:13.499Z,56.22
2017-03-07T10:24:13.488Z,57.07
2017-03-07T10:25:13.481Z,61.61
2017-03-07T10:26:13.455Z,60.1
2017-03-07T10:27:13.442Z,57.64
2017-03-07T10:28:13.424Z,55.84
2017-03-07T10:29:13.409Z,55.75
2017-03-07T10:30:13.394Z,54.99
2017-03-07T10:31:13.379Z,57.45
2017-03-07T10:32:13.384Z,58.78
2017-03-07T10:33:13.352Z,58.3
2017-03-07T10:34:13.337Z,60.1
2017-03-07T10:35:13.320Z,62.59
2017-03-07T10:36:13.316Z,59.06
2017-03-07T10:37:13.289Z,56.51
2017-03-07T10:38:13.275Z,57.73
2017-03-07T10:39:13.264Z,57.64
2017-03-07T10:40:13.254Z,61.52
2017-03-07T10:41:13.241Z,65.72
2017-03-07T10:42:13.212Z,63.7
2017-03-07T10:43:13.203Z,62.47
2017-03-07T10:44:13.184Z,62.75
2017-03-07T10:45:13.170Z,60.19
2017-03-07T10:46:13.159Z,59.25
2017-03-07T10:47:13.151Z,62.28
2017-03-07T10:48:13.126Z,61.8
2017-03-07T10:49:13.110Z,58.3
2017-03-07T10:50:13.099Z,59.91
2017-03-07T10:51:13.101Z,56.22
2017-03-07T10:52:13.067Z,56.41
2017-03-07T10:53:13.062Z,56.15
2017-03-07T10:54:13.036Z,59
2017-03-07T10:55:13.026Z,57.2
2017-03-07T10:56:13.008Z,57.2
2017-03-07T10:57:12.993Z,56.34
2017-03-07T10:58:12.984Z,55.68
2017-03-07T10:59:12.969Z,59.38
2017-03-07T11:00:12.951Z,59
2017-03-07T11:01:12.935Z,59.56
2017-03-07T11:02:12.524Z,60.8
2017-03-07T11:03:12.908Z,63.92
2017-03-07T11:04:12.895Z,62.02
2017-03-07T11:05:12.877Z,67.14
2017-03-07T11:06:12.871Z,63.92
2017-03-07T11:07:12.846Z,64.58
2017-03-07T11:08:12.861Z,63.64
2017-03-07T11:09:12.819Z,60.89
2017-03-07T11:10:12.803Z,59.38
2017-03-07T11:11:12.788Z,55.3
2017-03-07T11:12:12.785Z,55.4
2017-03-07T11:13:12.763Z,58.05
2017-03-07T11:14:12.354Z,60.41
2017-03-07T11:15:12.730Z,59.09
2017-03-07T11:16:12.746Z,59.53
2017-03-07T11:17:12.703Z,62.18
2017-03-07T11:18:12.699Z,60.03
2017-03-07T11:19:12.685Z,65.59
2017-03-07T11:20:12.660Z,62.56
2017-03-07T11:21:12.646Z,60
2017-03-07T11:22:12.636Z,61.05
2017-03-07T11:23:12.614Z,56.79
2017-03-07T11:24:12.598Z,53.95
2017-03-07T11:25:12.585Z,53
2017-03-07T11:26:12.575Z,49.88
2017-03-07T11:27:12.556Z,48.84
2017-03-07T11:28:12.555Z,48.55
2017-03-07T11:29:12.538Z,48.93
2017-03-07T11:30:12.510Z,50.47
2017-03-07T11:31:12.496Z,52.56
2017-03-07T11:32:12.504Z,56.82
2017-03-07T11:33:12.476Z,58.05
2017-03-07T11:34:12.459Z,61.55
2017-03-07T11:35:12.468Z,59.34
2017-03-07T11:36:12.420Z,58.4
2017-03-07T11:37:12.422Z,57.64
2017-03-07T11:38:12.393Z,54.14
2017-03-07T11:39:12.378Z,52.44
2017-03-07T11:40:12.370Z,51.3
2017-03-07T11:41:12.350Z,50.07
2017-03-07T11:42:11.934Z,50.47
2017-03-07T11:43:12.320Z,54.74
2017-03-07T11:44:12.317Z,55.68
2017-03-07T11:45:12.289Z,52.44
2017-03-07T11:46:12.275Z,51.42
2017-03-07T11:47:12.264Z,52.37
2017-03-07T11:48:12.245Z,51.61
2017-03-07T11:49:12.232Z,52.18
2017-03-07T11:50:12.214Z,50.19
2017-03-07T11:51:12.203Z,49.33
2017-03-07T11:52:12.202Z,48.58
2017-03-07T11:53:12.173Z,47.91
2017-03-07T11:54:12.190Z,46.69
2017-03-07T11:55:12.142Z,47.06
2017-03-07T11:56:12.140Z,48.29
2017-03-07T11:57:12.114Z,53.41
2017-03-07T11:58:12.109Z,55.96
2017-03-07T11:59:12.088Z,55.3
2017-03-07T12:00:12.068Z,55.21
2017-03-07T12:01:12.085Z,55.08
2017-03-07T12:02:12.041Z,52.44
2017-03-07T12:03:12.025Z,49.69
2017-03-07T12:04:11.623Z,48.36
2017-03-07T12:05:12.008Z,47.32
2017-03-07T12:06:11.996Z,52.15
2017-03-07T12:07:11.975Z,51.11
2017-03-07T12:08:11.951Z,47.89
2017-03-07T12:09:11.939Z,46.09
2017-03-07T12:10:11.930Z,44.01
2017-03-07T12:11:11.908Z,41.74
2017-03-07T12:12:11.897Z,39.84
2017-03-07T12:13:11.878Z,40.98
2017-03-07T12:14:11.865Z,40.7
2017-03-07T12:15:11.860Z,39.94
2017-03-07T12:16:11.855Z,40.22
2017-03-07T12:17:11.816Z,40.03
2017-03-07T12:18:11.805Z,40.13
2017-03-07T12:19:11.790Z,38.81
2017-03-07T12:20:11.391Z,35.77
2017-03-07T12:21:11.380Z,34.17
2017-03-07T12:22:11.745Z,32.28
2017-03-07T12:23:11.728Z,31.9
2017-03-07T12:24:11.711Z,31.14
2017-03-07T12:25:11.700Z,31.8
2017-03-07T12:26:11.699Z,31.71
2017-03-07T12:27:11.670Z,32.37
2017-03-07T12:28:11.667Z,36.06
2017-03-07T12:29:11.644Z,35.87
2017-03-07T12:30:11.623Z,37.19
2017-03-07T12:31:11.613Z,41.27
2017-03-07T12:32:11.594Z,41.46
2017-03-07T12:33:11.579Z,40.51
2017-03-07T12:34:11.566Z,39.47
2017-03-07T12:35:11.552Z,40.22
2017-03-07T12:36:11.535Z,43.07
2017-03-07T12:37:11.530Z,44.77
2017-03-07T12:38:11.508Z,42.59
2017-03-07T12:39:11.108Z,41.36
2017-03-07T12:40:11.482Z,40.51
2017-03-07T12:41:11.471Z,39.56
2017-03-07T12:42:11.453Z,38.52
2017-03-07T12:43:11.431Z,38.43
2017-03-07T12:44:11.908Z,37.29
2017-03-07T12:45:11.404Z,35.3
2017-03-07T12:46:11.384Z,32.56
2017-03-07T12:47:11.375Z,30.19
2017-03-07T12:48:11.364Z,29.15
2017-03-07T12:49:11.350Z,31.14
2017-03-07T12:50:11.391Z,28.96
2017-03-07T12:51:11.771Z,29.34
2017-03-07T12:52:11.432Z,28.96
2017-03-07T12:53:11.186Z,27.26
2017-03-07T12:54:11.264Z,26.97
2017-03-07T12:55:11.250Z,31.9
2017-03-07T12:56:11.236Z,30.95
2017-03-07T12:57:11.219Z,29.34
2017-03-07T12:58:11.204Z,30.19
2017-03-07T12:59:11.207Z,31.9
2017-03-07T13:00:11.175Z,30.29
2017-03-07T13:01:11.157Z,29.05
2017-03-07T13:02:11.143Z,27.07
2017-03-07T13:03:11.134Z,27.07
2017-03-07T13:04:11.115Z,27.16
2017-03-07T13:05:11.108Z,27.07
2017-03-07T13:06:11.083Z,26.59
2017-03-07T13:07:11.079Z,26.03